Time;durP1;ratioP1;P1;durP2;ratioP2;P2;SDS_P1;SDS_P2;PMS_P1;PMS_P2;Temp;Humidity;BMP_temperature;BMP_pressure;BME280_temperature;BME280_humidity;BME280_pressure;Samples;Min_cycle;Max_cycle;Signal;HPM_P1;HPM_P2
2023/12/22 00:00:12;;;;;;;;;23.40;19.20;;;;;8.60;34.40;97362.44;5032455;28;8871;-75
2023/12/22 00:03:01;;;;;;;;;13.60;12.20;;;;;8.80;33.79;97344.91;5028087;28;8863;-75
2023/12/22 00:05:30;;;;;;;;;15.60;15.60;;;;;8.95;33.68;97340.66;5028118;28;8867;-77
2023/12/22 00:07:59;;;;;;;;;19.00;16.00;;;;;8.84;33.36;97349.09;5036841;28;8996;-74
2023/12/22 00:10:28;;;;;;;;;23.20;20.60;;;;;8.89;33.84;97339.19;5008609;28;8855;-78
2023/12/22 00:12:59;;;;;;;;;17.20;16.20;;;;;8.80;33.97;97342.31;5008518;28;8870;-75
2023/12/22 00:15:28;;;;;;;;;17.40;16.20;;;;;8.93;33.90;97334.66;5008296;28;8890;-75
2023/12/22 00:17:57;;;;;;;;;12.80;12.80;;;;;9.06;33.58;97332.28;5038766;28;8846;-75
2023/12/22 00:20:26;;;;;;;;;20.60;18.40;;;;;9.09;33.51;97332.97;5007983;28;9718;-76
2023/12/22 00:22:55;;;;;;;;;20.20;16.60;;;;;9.18;33.13;97329.88;5007114;28;8862;-77
2023/12/22 00:25:24;;;;;;;;;20.00;18.40;;;;;9.06;33.25;97327.88;4989330;28;8924;-75
2023/12/22 00:27:53;;;;;;;;;18.20;17.00;;;;;8.90;33.68;97317.31;5006969;28;9079;-77
2023/12/22 00:30:25;;;;;;;;;18.20;17.00;;;;;9.16;33.50;97317.81;4973939;28;8870;-79
2023/12/22 00:32:54;;;;;;;;;18.20;16.40;;;;;8.99;33.61;97316.03;5009176;28;8898;-74
2023/12/22 00:35:23;;;;;;;;;17.60;15.40;;;;;8.99;33.41;97319.50;5026242;28;9051;-75
2023/12/22 00:37:52;;;;;;;;;19.80;17.20;;;;;8.85;33.60;97308.84;5015850;28;8876;-75
2023/12/22 00:40:21;;;;;;;;;14.40;13.60;;;;;8.79;33.75;97312.63;5065282;28;8860;-76
2023/12/22 00:43:15;;;;;;;;;19.40;16.80;;;;;9.04;33.34;97316.63;5050423;28;9531;-74
2023/12/22 00:45:45;;;;;;;;;18.20;17.80;;;;;8.95;33.84;97320.56;5009295;28;8863;-76
2023/12/22 00:48:15;;;;;;;;;15.00;15.00;;;;;8.98;33.59;97323.03;4994486;28;8876;-74
2023/12/22 00:50:45;;;;;;;;;17.60;16.00;;;;;9.13;33.60;97312.69;5028502;28;8851;-76
2023/12/22 00:53:14;;;;;;;;;18.00;17.80;;;;;9.13;33.49;97321.41;4989433;28;8879;-75
2023/12/22 00:55:43;;;;;;;;;18.60;14.20;;;;;8.99;33.85;97319.50;5008656;28;9051;-76
2023/12/22 00:58:12;;;;;;;;;22.80;18.00;;;;;9.11;33.46;97317.19;4976523;28;8990;-77
2023/12/22 01:00:41;;;;;;;;;14.40;12.60;;;;;9.21;33.77;97326.25;5008767;28;9012;-77
2023/12/22 01:03:11;;;;;;;;;21.40;19.00;;;;;9.31;33.56;97316.13;5008838;28;8987;-78
2023/12/22 01:05:41;;;;;;;;;17.80;17.40;;;;;9.31;33.70;97308.28;4995623;28;8847;-74
2023/12/22 01:08:10;;;;;;;;;16.20;14.60;;;;;9.37;33.23;97313.22;4989515;28;8858;-78
2023/12/22 01:10:39;;;;;;;;;18.00;17.40;;;;;9.34;33.25;97303.72;4988783;28;8857;-75
2023/12/22 01:13:08;;;;;;;;;23.40;18.80;;;;;9.42;33.33;97309.44;5005341;28;8891;-76
2023/12/22 01:15:38;;;;;;;;;12.40;12.40;;;;;9.37;33.38;97306.19;4988259;28;8990;-75
2023/12/22 01:18:06;;;;;;;;;15.80;15.80;;;;;9.46;33.09;97309.25;4971028;28;9757;-76
2023/12/22 01:20:37;;;;;;;;;18.00;17.00;;;;;9.51;33.31;97305.47;4988520;28;8884;-76
2023/12/22 01:23:07;;;;;;;;;18.80;18.20;;;;;9.27;33.33;97302.34;4995497;28;8869;-75
2023/12/22 01:25:36;;;;;;;;;18.80;16.20;;;;;9.46;33.22;97299.63;5024357;28;8914;-77
2023/12/22 01:28:05;;;;;;;;;20.40;17.40;;;;;9.53;33.04;97302.78;4991721;28;8977;-75
2023/12/22 01:30:35;;;;;;;;;17.60;16.60;;;;;9.49;33.03;97303.88;5008384;28;8866;-75
2023/12/22 01:33:04;;;;;;;;;17.20;15.80;;;;;9.49;33.08;97307.31;5008000;28;8862;-76
2023/12/22 01:35:34;;;;;;;;;15.60;15.00;;;;;9.49;33.23;97296.84;5008049;28;9592;-76
2023/12/22 01:38:04;;;;;;;;;17.40;17.20;;;;;9.56;33.10;97300.84;4991356;28;8948;-74
2023/12/22 01:40:33;;;;;;;;;19.40;18.40;;;;;9.66;33.08;97282.84;5007772;28;8866;-75
2023/12/22 01:43:02;;;;;;;;;23.40;19.20;;;;;9.72;32.98;97279.91;5007493;28;8850;-76
2023/12/22 01:45:31;;;;;;;;;24.20;22.80;;;;;9.81;32.78;97273.31;5009033;28;8874;-74
2023/12/22 01:48:01;;;;;;;;;19.40;19.40;;;;;9.88;32.81;97269.44;5007962;28;8862;-75
2023/12/22 01:50:30;;;;;;;;;19.80;17.40;;;;;9.81;32.97;97271.53;5039270;28;8826;-76
2023/12/22 01:52:59;;;;;;;;;17.40;13.00;;;;;9.72;32.85;97265.94;5010116;28;8870;-74
2023/12/22 01:55:30;;;;;;;;;19.60;18.60;;;;;9.57;33.25;97258.00;5010348;28;9512;-75
2023/12/22 01:58:00;;;;;;;;;22.00;17.60;;;;;9.72;33.16;97243.16;5008665;28;9937;-79
2023/12/22 02:00:29;;;;;;;;;17.40;15.60;;;;;9.73;33.70;97249.28;5041791;28;8900;-76
2023/12/22 02:02:58;;;;;;;;;14.60;14.60;;;;;9.68;33.81;97244.28;5010266;28;9008;-75
2023/12/22 02:05:29;;;;;;;;;19.00;17.20;;;;;9.55;33.89;97230.09;5026413;28;8948;-78
2023/12/22 02:07:58;;;;;;;;;20.20;16.60;;;;;9.58;33.96;97230.81;5029525;28;8851;-75
2023/12/22 02:10:28;;;;;;;;;20.40;16.80;;;;;9.57;33.68;97231.75;5029656;28;8869;-75
2023/12/22 02:12:58;;;;;;;;;18.40;18.40;;;;;9.65;33.64;97227.84;5029318;28;8890;-75
2023/12/22 02:15:27;;;;;;;;;16.60;16.60;;;;;9.64;33.37;97229.63;5029432;28;9010;-75
2023/12/22 02:18:03;;;;;;;;;16.80;16.80;;;;;9.59;33.52;97229.91;5013322;28;8878;-75
2023/12/22 02:20:33;;;;;;;;;19.60;17.40;;;;;9.65;33.51;97226.09;5041023;28;8835;-76
2023/12/22 02:23:04;;;;;;;;;13.40;13.00;;;;;9.59;33.61;97229.91;5012219;28;8878;-76
2023/12/22 02:25:33;;;;;;;;;18.40;17.40;;;;;9.47;33.84;97233.13;5027880;28;8961;-76
2023/12/22 02:28:08;;;;;;;;;20.20;17.00;;;;;9.58;33.77;97229.97;5028878;28;8882;-75
2023/12/22 02:30:44;;;;;;;;;19.40;15.40;;;;;9.60;33.63;97225.50;5029217;28;8847;-74
2023/12/22 02:33:16;;;;;;;;;15.40;13.60;;;;;9.57;33.77;97229.13;5028814;28;8894;-75
2023/12/22 02:35:50;;;;;;;;;18.00;18.00;;;;;9.59;33.60;97219.41;5010398;28;8909;-76
2023/12/22 02:38:21;;;;;;;;;18.40;16.80;;;;;9.38;33.94;97223.13;5009352;28;8854;-74
2023/12/22 02:40:51;;;;;;;;;14.80;14.80;;;;;9.06;34.52;97223.06;5009042;28;8888;-74
2023/12/22 02:43:20;;;;;;;;;18.40;17.60;;;;;9.35;34.46;97228.56;5008046;28;8943;-74
2023/12/22 02:45:51;;;;;;;;;13.80;12.80;;;;;9.22;34.76;97229.19;5008881;28;8869;-75
2023/12/22 02:48:20;;;;;;;;;19.40;15.40;;;;;9.30;34.46;97226.16;5007182;28;8858;-74
2023/12/22 02:50:49;;;;;;;;;17.20;17.20;;;;;9.24;34.51;97231.75;5023899;28;8960;-76
2023/12/22 02:53:20;;;;;;;;;14.80;13.40;;;;;9.26;34.59;97239.53;4990464;28;8876;-74
2023/12/22 02:55:49;;;;;;;;;16.40;15.40;;;;;9.38;34.80;97242.31;5008577;28;8866;-74
2023/12/22 02:58:17;;;;;;;;;15.20;15.00;;;;;9.02;35.25;97251.19;5009660;28;9008;-76
2023/12/22 03:00:47;;;;;;;;;16.80;13.60;;;;;9.25;35.11;97262.25;5009732;28;8939;-76
2023/12/22 03:03:16;;;;;;;;;14.00;13.00;;;;;9.17;35.11;97270.50;5009007;28;8897;-75
2023/12/22 03:05:45;;;;;;;;;14.20;13.40;;;;;9.43;35.07;97276.19;4989809;28;8900;-74
2023/12/22 03:08:14;;;;;;;;;16.80;16.40;;;;;9.42;35.02;97284.97;5008887;28;8878;-75
2023/12/22 03:10:44;;;;;;;;;11.80;11.80;;;;;9.55;34.91;97287.78;4974533;28;8912;-75
2023/12/22 03:13:13;;;;;;;;;16.80;15.60;;;;;9.73;34.50;97289.47;5008486;28;8874;-74
2023/12/22 03:15:42;;;;;;;;;11.00;10.80;;;;;9.50;35.21;97285.44;5007738;28;8857;-76
2023/12/22 03:18:11;;;;;;;;;18.60;15.60;;;;;9.81;34.92;97289.06;5008780;28;8886;-76
2023/12/22 03:20:41;;;;;;;;;12.20;11.80;;;;;9.73;34.85;97292.09;5021746;28;8839;-74
2023/12/22 03:23:09;;;;;;;;;14.60;13.60;;;;;9.81;34.98;97305.63;5026827;28;8883;-74
2023/12/22 03:25:39;;;;;;;;;14.40;13.20;;;;;9.85;34.85;97308.94;5010525;28;8844;-76
2023/12/22 03:28:09;;;;;;;;;16.40;14.40;;;;;9.58;35.35;97327.84;5028644;28;8859;-75
2023/12/22 03:30:38;;;;;;;;;17.80;14.00;;;;;9.39;36.19;97351.53;5028704;28;8936;-76
2023/12/22 03:33:07;;;;;;;;;17.60;15.40;;;;;9.57;35.87;97373.38;5028920;28;8905;-75
2023/12/22 03:35:37;;;;;;;;;13.80;13.80;;;;;9.58;36.66;97403.09;5015358;28;8889;-75
2023/12/22 03:38:05;;;;;;;;;13.40;13.00;;;;;8.76;38.47;97441.13;5008682;28;8985;-79
2023/12/22 03:40:34;;;;;;;;;22.00;17.20;;;;;7.71;43.72;97463.25;5008671;28;8834;-75
2023/12/22 03:43:03;;;;;;;;;14.00;12.60;;;;;6.42;51.94;97487.53;5009024;28;8920;-75
2023/12/22 03:45:34;;;;;;;;;16.60;16.60;;;;;5.41;61.52;97523.19;5008482;28;8960;-74
2023/12/22 03:48:03;;;;;;;;;13.60;12.20;;;;;4.83;67.12;97532.78;5008515;28;8866;-74
2023/12/22 03:50:32;;;;;;;;;24.60;19.60;;;;;4.06;71.07;97541.03;5008577;28;8867;-76
2023/12/22 03:53:01;;;;;;;;;21.40;20.40;;;;;3.86;73.67;97541.53;5028008;28;8886;-75
2023/12/22 03:55:31;;;;;;;;;24.40;23.20;;;;;3.65;75.57;97552.50;5026794;28;8856;-73
2023/12/22 03:57:59;;;;;;;;;29.60;25.60;;;;;3.30;76.28;97552.44;5028021;28;8860;-74
2023/12/22 04:00:29;;;;;;;;;30.60;28.00;;;;;3.10;78.02;97545.09;5028402;28;8977;-75
2023/12/22 04:02:59;;;;;;;;;31.60;30.20;;;;;2.94;78.95;97559.31;5027115;28;8878;-77
2023/12/22 04:05:28;;;;;;;;;35.00;32.75;;;;;2.77;80.41;97578.72;5017597;28;8901;-74
2023/12/22 04:07:57;;;;;;;;;32.25;28.25;;;;;2.55;81.05;97580.88;5008739;28;8893;-77
2023/12/22 04:10:27;;;;;;;;;37.25;33.75;;;;;2.51;82.49;97579.25;5006920;28;9607;-75
2023/12/22 04:12:55;;;;;;;;;42.25;38.50;;;;;2.40;83.50;97589.81;5008245;28;8873;-75
2023/12/22 04:15:25;;;;;;;;;39.60;38.60;;;;;2.37;84.25;97597.69;5008402;28;8888;-75
2023/12/22 04:17:53;;;;;;;;;41.00;38.50;;;;;2.34;84.92;97589.09;5026609;28;8879;-75
2023/12/22 04:20:44;;;;;;;;;32.80;30.60;;;;;-151.82;100.00;59509.28;5013240;28;8828;-74
2023/12/22 04:23:12;;;;;;;;;35.50;34.75;;;;;2.31;86.06;97566.66;4989270;28;8890;-75
2023/12/22 04:25:41;;;;;;;;;39.50;34.50;;;;;2.54;85.49;97565.34;5014109;28;8860;-73
2023/12/22 04:28:10;;;;;;;;;37.00;34.80;;;;;2.53;85.82;97568.84;5025744;28;8960;-74
2023/12/22 04:30:39;;;;;;;;;37.00;36.25;;;;;2.59;85.86;97551.41;5010670;28;8959;-74
2023/12/22 04:33:08;;;;;;;;;35.80;33.40;;;;;2.66;85.87;97544.34;5011756;28;8847;-74
2023/12/22 04:35:39;;;;;;;;;33.60;30.00;;;;;2.48;86.22;97553.34;5011833;28;8892;-75
2023/12/22 04:38:08;;;;;;;;;34.25;29.75;;;;;2.76;86.62;97548.44;5011681;28;8862;-75
2023/12/22 04:40:38;;;;;;;;;34.25;31.00;;;;;2.96;84.99;97537.63;5010189;28;8855;-77
2023/12/22 04:43:06;;;;;;;;;27.75;27.75;;;;;2.92;85.88;97532.53;5001886;28;8917;-76
2023/12/22 04:45:36;;;;;;;;;28.40;26.00;;;;;2.72;85.03;97527.81;5010096;28;8850;-75
2023/12/22 04:48:05;;;;;;;;;33.80;32.20;;;;;2.90;85.84;97518.75;5011364;28;8878;-73
2023/12/22 04:50:35;;;;;;;;;29.40;26.80;;;;;2.82;86.04;97516.31;4977591;28;8948;-74
2023/12/22 04:53:05;;;;;;;;;26.00;23.80;;;;;2.79;85.37;97522.44;4977023;28;8869;-73
2023/12/22 04:55:34;;;;;;;;;8.20;6.80;;;;;2.85;84.46;97525.81;4992949;28;8846;-75
2023/12/22 04:58:03;;;;;;;;;26.80;24.60;;;;;3.02;84.80;97510.69;5010297;28;8972;-75
2023/12/22 05:00:33;;;;;;;;;27.40;21.00;;;;;3.17;84.07;97505.13;4961113;28;9277;-74
2023/12/22 05:03:01;;;;;;;;;19.60;16.40;;;;;3.32;82.69;97505.66;5011453;28;8881;-76
2023/12/22 05:05:31;;;;;;;;;21.40;19.40;;;;;3.12;82.64;97513.91;5009261;28;8874;-75
2023/12/22 05:08:00;;;;;;;;;13.40;11.60;;;;;3.06;82.36;97521.88;5029730;28;8871;-74
2023/12/22 05:10:30;;;;;;;;;21.20;21.20;;;;;3.06;82.15;97542.63;5031052;28;8910;-75
2023/12/22 05:12:59;;;;;;;;;19.00;17.40;;;;;3.11;82.16;97546.81;5029609;28;8897;-77
2023/12/22 05:15:28;;;;;;;;;22.40;19.60;;;;;3.18;82.61;97539.72;5027763;28;8842;-75
2023/12/22 05:17:57;;;;;;;;;21.20;18.60;;;;;3.13;82.94;97558.03;5011143;28;8906;-75
2023/12/22 05:20:26;;;;;;;;;14.20;13.80;;;;;3.09;82.74;97565.91;5008979;28;9004;-75
2023/12/22 05:22:55;;;;;;;;;18.60;18.60;;;;;3.17;82.06;97570.03;4995616;28;8879;-74
2023/12/22 05:25:24;;;;;;;;;16.20;15.40;;;;;3.24;80.52;97572.50;5029240;28;8891;-74
2023/12/22 05:27:55;;;;;;;;;13.60;13.60;;;;;3.22;81.20;97569.06;5010601;28;9780;-73
2023/12/22 05:30:24;;;;;;;;;21.60;19.00;;;;;3.24;80.90;97585.47;5009661;28;8885;-74
2023/12/22 05:32:54;;;;;;;;;18.00;17.00;;;;;3.26;80.40;97583.69;5009056;28;8870;-74
2023/12/22 05:35:23;;;;;;;;;18.60;14.00;;;;;3.34;80.88;97566.22;4992236;28;8956;-75
2023/12/22 05:37:52;;;;;;;;;14.80;14.40;;;;;3.42;80.81;97560.88;5024696;28;8897;-75
2023/12/22 05:40:22;;;;;;;;;13.60;13.60;;;;;3.51;79.14;97568.44;5008992;28;8894;-76
2023/12/22 05:42:51;;;;;;;;;1.00;1.00;;;;;3.50;80.11;97561.53;5010593;28;8930;-76
2023/12/22 05:45:21;;;;;;;;;14.60;14.00;;;;;3.37;79.49;97566.13;5010130;28;8904;-78
2023/12/22 05:47:50;;;;;;;;;17.60;17.60;;;;;3.66;79.62;97570.66;5022021;28;8846;-75
2023/12/22 05:50:20;;;;;;;;;18.80;17.60;;;;;3.85;78.67;97563.25;5007736;28;8858;-76
2023/12/22 05:52:49;;;;;;;;;19.20;19.20;;;;;3.77;78.50;97559.97;5027221;28;8856;-75
2023/12/22 05:55:18;;;;;;;;;20.00;17.40;;;;;3.77;78.41;97570.38;5030266;28;8866;-78
2023/12/22 05:57:47;;;;;;;;;18.20;16.80;;;;;3.66;77.31;97569.78;5019740;28;9742;-75
2023/12/22 06:00:17;;;;;;;;;20.00;20.00;;;;;3.47;78.65;97596.22;5008832;28;8866;-75
2023/12/22 06:02:47;;;;;;;;;19.80;18.80;;;;;3.52;78.97;97589.16;5010035;28;8869;-74
2023/12/22 06:05:16;;;;;;;;;25.80;24.20;;;;;3.49;78.94;97586.66;5009600;28;8880;-75
2023/12/22 06:07:45;;;;;;;;;19.20;19.20;;;;;3.42;78.31;97599.81;5016914;28;8859;-76
2023/12/22 06:10:15;;;;;;;;;23.00;22.40;;;;;3.52;78.34;97607.34;5027399;28;9542;-76
2023/12/22 06:12:44;;;;;;;;;19.00;18.60;;;;;3.72;78.18;97600.84;5029722;28;8859;-76
2023/12/22 06:15:13;;;;;;;;;23.20;19.80;;;;;3.66;77.72;97590.56;5038069;28;8896;-76
2023/12/22 06:17:41;;;;;;;;;21.40;21.40;;;;;3.91;76.70;97591.66;4962692;28;8879;-76
2023/12/22 06:20:12;;;;;;;;;24.40;23.20;;;;;4.07;76.59;97601.66;5044188;28;8851;-77
2023/12/22 06:22:42;;;;;;;;;24.80;23.80;;;;;4.44;75.94;97598.94;5014199;28;8869;-77
2023/12/22 06:25:11;;;;;;;;;23.00;20.60;;;;;4.83;75.10;97603.06;5008299;28;8862;-75
2023/12/22 06:27:40;;;;;;;;;18.00;18.00;;;;;5.13;75.14;97596.97;5013156;28;8988;-77
2023/12/22 06:30:10;;;;;;;;;19.80;15.80;;;;;5.23;73.38;97589.72;4990918;28;9655;-76
2023/12/22 06:32:41;;;;;;;;;20.00;19.20;;;;;5.41;73.59;97592.69;5047887;28;8867;-77
2023/12/22 06:35:13;;;;;;;;;22.20;20.20;;;;;5.50;71.88;97592.41;5029857;28;8855;-75
2023/12/22 06:37:45;;;;;;;;;21.60;21.40;;;;;5.52;70.66;97598.41;5016481;28;8900;-77
2023/12/22 06:40:15;;;;;;;;;18.60;18.60;;;;;5.23;69.68;97610.56;5015806;28;8869;-76
2023/12/22 06:42:44;;;;;;;;;19.60;19.20;;;;;5.63;69.82;97624.13;5030096;28;8870;-76
2023/12/22 06:45:13;;;;;;;;;15.20;14.80;;;;;5.37;68.96;97625.78;4989050;28;8872;-76
2023/12/22 06:47:42;;;;;;;;;23.40;19.60;;;;;5.61;67.15;97632.00;5028683;28;8869;-75
2023/12/22 06:50:13;;;;;;;;;19.20;16.80;;;;;5.20;67.40;97639.28;5028839;28;9588;-77
2023/12/22 06:52:42;;;;;;;;;15.60;15.40;;;;;5.09;67.61;97649.19;5026821;28;8867;-77
2023/12/22 06:55:11;;;;;;;;;18.00;15.60;;;;;4.70;68.34;97658.09;5010129;28;8848;-77
2023/12/22 06:57:40;;;;;;;;;14.40;12.20;;;;;4.54;68.85;97664.59;5028376;28;9685;-76
2023/12/22 07:00:11;;;;;;;;;15.40;15.40;;;;;4.73;68.64;97663.22;5022074;28;8858;-77
2023/12/22 07:02:40;;;;;;;;;16.20;16.00;;;;;5.08;68.74;97661.34;5008629;28;8961;-76
2023/12/22 07:05:36;;;;;;;;;14.80;14.80;;;;;5.20;66.52;97659.28;5007711;28;8850;-76
2023/12/22 07:08:07;;;;;;;;;19.40;16.00;;;;;5.51;67.77;97661.88;5021374;28;8844;-78
2023/12/22 07:10:36;;;;;;;;;20.00;18.80;;;;;5.72;68.41;97665.56;4977853;28;9323;-75
2023/12/22 07:13:05;;;;;;;;;23.00;21.80;;;;;5.93;67.61;97664.00;4994273;28;8902;-76
2023/12/22 07:15:34;;;;;;;;;23.40;22.20;;;;;6.15;67.88;97656.31;5031797;28;8860;-78
2023/12/22 07:18:04;;;;;;;;;29.80;29.40;;;;;5.97;68.42;97657.78;5015563;28;8974;-77
2023/12/22 07:20:35;;;;;;;;;28.20;26.60;;;;;6.26;67.93;97651.59;4977242;28;9002;-79
2023/12/22 07:23:04;;;;;;;;;28.00;27.40;;;;;6.41;67.41;97645.00;5028617;28;8870;-75
2023/12/22 07:25:38;;;;;;;;;28.40;28.40;;;;;6.49;67.89;97657.78;5006953;28;8894;-81
2023/12/22 07:28:07;;;;;;;;;21.80;20.00;;;;;6.48;66.80;97667.38;5017642;28;8866;-80
2023/12/22 07:30:37;;;;;;;;;34.00;30.00;;;;;6.38;65.61;97675.56;5010973;28;8993;-82
2023/12/22 07:33:11;;;;;;;;;34.00;32.60;;;;;6.05;67.30;97675.78;5012361;28;8874;-79
2023/12/22 07:35:42;;;;;;;;;44.25;40.00;;;;;5.83;67.34;97693.88;5040261;28;8866;-79
2023/12/22 07:38:13;;;;;;;;;41.00;37.50;;;;;6.17;68.44;97695.41;5021534;28;8880;-81
2023/12/22 07:40:42;;;;;;;;;38.75;36.75;;;;;6.37;67.24;97690.38;5015148;28;8893;-80
2023/12/22 07:43:11;;;;;;;;;39.50;34.25;;;;;6.62;68.30;97685.16;5008591;28;8885;-81
2023/12/22 07:45:40;;;;;;;;;38.50;36.00;;;;;6.12;66.28;97699.03;5002988;28;8855;-81
2023/12/22 07:48:09;;;;;;;;;37.25;36.25;;;;;6.08;66.91;97704.41;5029913;28;8870;-79
2023/12/22 07:50:39;;;;;;;;;40.75;39.00;;;;;5.77;67.60;97713.16;4976235;28;8846;-83
2023/12/22 07:53:09;;;;;;;;;40.50;37.00;;;;;5.77;67.29;97710.56;5028242;28;8988;-84
2023/12/22 07:55:38;;;;;;;;;33.00;29.00;;;;;5.92;68.08;97714.44;5044931;28;8874;-81
2023/12/22 07:58:08;;;;;;;;;42.75;39.50;;;;;5.73;69.21;97724.59;5058893;28;8878;-81
2023/12/22 08:00:37;;;;;;;;;38.75;37.25;;;;;5.52;68.47;97737.38;5061381;28;8953;-81
2023/12/22 08:03:06;;;;;;;;;42.25;36.75;;;;;5.25;69.92;97727.75;5030458;28;8858;-80
2023/12/22 08:05:35;;;;;;;;;44.25;36.75;;;;;5.71;69.69;97687.31;5013486;28;9004;-82
2023/12/22 08:08:05;;;;;;;;;37.25;35.50;;;;;5.73;67.76;97694.16;5003325;28;8956;-83
2023/12/22 08:10:36;;;;;;;;;35.00;32.00;;;;;5.68;68.16;97709.13;5017359;28;8846;-82
2023/12/22 08:13:05;;;;;;;;;30.80;30.00;;;;;5.98;68.31;97714.25;5042525;28;8959;-81
2023/12/22 08:15:35;;;;;;;;;37.60;34.40;;;;;6.12;67.30;97727.72;5021690;28;8850;-82
2023/12/22 08:18:06;;;;;;;;;31.80;29.40;;;;;6.30;66.94;97721.06;5035814;28;8963;-80
2023/12/22 08:20:36;;;;;;;;;30.00;28.40;;;;;6.36;65.80;97725.22;5018313;28;8863;-82
2023/12/22 08:23:12;;;;;;;;;29.00;27.40;;;;;6.51;66.15;97734.28;5031039;28;8852;-81
2023/12/22 08:25:44;;;;;;;;;30.60;28.00;;;;;6.71;65.94;97744.06;5010476;28;8902;-80
2023/12/22 08:28:14;;;;;;;;;37.60;35.20;;;;;6.78;66.12;97742.94;5028773;28;8883;-81
2023/12/22 08:30:44;;;;;;;;;38.40;33.20;;;;;7.07;66.86;97744.56;5009170;28;8862;-81
2023/12/22 08:33:13;;;;;;;;;32.60;30.40;;;;;7.05;65.33;97733.31;5023412;28;8941;-82
2023/12/22 08:35:42;;;;;;;;;41.00;36.25;;;;;7.09;65.22;97749.72;4976394;28;8894;-82
2023/12/22 08:38:13;;;;;;;;;37.50;35.75;;;;;7.16;65.59;97742.53;5019673;28;9434;-82
2023/12/22 08:40:45;;;;;;;;;45.75;40.25;;;;;7.22;65.35;97766.66;4974583;28;8981;-82
2023/12/22 08:43:14;;;;;;;;;39.00;34.50;;;;;6.97;65.75;97758.00;4991959;28;8890;-82
2023/12/22 08:45:43;;;;;;;;;52.00;42.25;;;;;7.14;64.72;97755.66;5013780;28;8973;-82
2023/12/22 08:48:12;;;;;;;;;39.75;32.50;;;;;7.02;65.73;97754.34;5012366;28;9697;-82
2023/12/22 08:50:42;;;;;;;;;47.25;41.00;;;;;7.18;66.17;97752.03;5000910;28;8886;-82
2023/12/22 08:53:12;;;;;;;;;43.75;38.75;;;;;7.25;64.93;97742.22;5021381;28;8998;-80
2023/12/22 08:55:41;;;;;;;;;44.50;38.00;;;;;7.21;65.40;97759.75;4997979;28;8892;-83
2023/12/22 08:58:11;;;;;;;;;37.75;36.25;;;;;7.26;64.16;97756.97;4999338;28;8916;-83
2023/12/22 09:00:41;;;;;;;;;48.40;37.60;;;;;7.53;66.42;97743.78;4993621;28;8858;-81
2023/12/22 09:03:10;;;;;;;;;43.75;39.50;;;;;7.62;65.22;97740.81;4967588;28;8901;-80
2023/12/22 09:05:40;;;;;;;;;46.25;40.00;;;;;7.63;63.79;97724.25;4999781;28;8874;-84
2023/12/22 09:08:09;;;;;;;;;41.50;38.25;;;;;7.74;64.93;97732.53;4972430;28;8939;-79
2023/12/22 09:10:39;;;;;;;;;40.25;36.50;;;;;7.60;62.25;97769.63;5005774;28;8960;-80
2023/12/22 09:13:08;;;;;;;;;41.25;36.75;;;;;7.59;62.86;97764.47;4935190;28;8904;-82
2023/12/22 09:15:46;;;;;;;;;43.00;39.00;;;;;7.75;63.39;97781.28;4992075;28;8854;-80
2023/12/22 09:18:15;;;;;;;;;39.75;36.75;;;;;7.38;62.60;97782.66;4972652;28;8874;-81
2023/12/22 09:20:45;;;;;;;;;42.20;37.00;;;;;7.40;62.72;97803.50;4954860;28;8885;-82
2023/12/22 09:23:14;;;;;;;;;36.50;35.25;;;;;7.48;63.40;97809.31;4989378;28;8900;-83
2023/12/22 09:25:43;;;;;;;;;44.00;38.60;;;;;7.70;63.55;97819.84;4953717;28;8877;-81
2023/12/22 09:28:12;;;;;;;;;40.60;37.80;;;;;7.69;63.16;97812.91;4938197;28;8899;-80
2023/12/22 09:30:43;;;;;;;;;44.25;39.75;;;;;7.75;63.08;97806.59;4954078;28;8973;-82
2023/12/22 09:33:12;;;;;;;;;56.00;47.50;;;;;7.62;63.50;97798.34;4951407;28;8874;-81
2023/12/22 09:35:42;;;;;;;;;37.00;35.25;;;;;7.48;62.55;97789.25;4961917;28;8861;-82
2023/12/22 09:38:12;;;;;;;;;52.25;41.50;;;;;7.74;64.23;97782.22;4940397;28;8872;-82
2023/12/22 09:40:42;;;;;;;;;46.50;39.25;;;;;7.63;62.44;97779.16;4957806;28;9552;-81
2023/12/22 09:43:15;;;;;;;;;45.75;37.75;;;;;7.52;60.56;97789.16;4965795;28;8854;-81
2023/12/22 09:45:47;;;;;;;;;38.00;37.00;;;;;7.52;62.24;97786.53;4979843;28;8846;-80
2023/12/22 09:48:20;;;;;;;;;47.25;37.75;;;;;7.54;62.82;97784.72;4974242;28;8951;-82
2023/12/22 09:50:49;;;;;;;;;45.75;40.75;;;;;7.66;63.58;97781.63;4988221;28;8882;-81
2023/12/22 09:53:20;;;;;;;;;46.00;39.20;;;;;7.58;63.24;97791.53;4989185;28;8908;-80
2023/12/22 09:55:50;;;;;;;;;43.50;38.00;;;;;7.57;63.40;97798.53;4974489;28;8878;-81
2023/12/22 09:58:20;;;;;;;;;35.75;35.00;;;;;7.39;63.15;97781.75;5010721;28;8869;-85
2023/12/22 10:00:53;;;;;;;;;42.40;38.40;;;;;7.17;62.86;97770.34;5007075;28;8849;-83
2023/12/22 10:03:25;;;;;;;;;49.50;42.25;;;;;7.39;63.46;97765.22;5028871;28;8850;-80
2023/12/22 10:05:55;;;;;;;;;42.50;36.75;;;;;7.45;64.38;97765.81;4991852;28;8856;-80
2023/12/22 10:08:25;;;;;;;;;43.50;38.00;;;;;7.35;62.36;97759.25;4978121;28;8840;-82
2023/12/22 10:10:55;;;;;;;;;38.80;34.40;;;;;6.95;62.76;97771.13;4964889;28;8832;-80
2023/12/22 10:13:27;;;;;;;;;40.00;37.40;;;;;7.09;64.24;97775.84;5014604;28;8879;-81
2023/12/22 10:15:59;;;;;;;;;44.80;38.40;;;;;7.24;64.20;97782.31;4997796;28;9038;-80
2023/12/22 10:18:29;;;;;;;;;43.50;38.50;;;;;7.08;63.56;97785.47;4995416;28;8836;-84
2023/12/22 10:20:59;;;;;;;;;38.60;36.00;;;;;6.51;63.75;97789.97;4950637;28;8846;-80
2023/12/22 10:23:28;;;;;;;;;44.25;39.25;;;;;6.28;65.52;97774.19;5011795;28;8853;-81
2023/12/22 10:26:01;;;;;;;;;48.60;39.40;;;;;6.72;64.95;97766.66;4995649;28;8874;-81
2023/12/22 10:28:31;;;;;;;;;36.80;36.20;;;;;6.87;65.27;97745.25;5012054;28;8841;-84
2023/12/22 10:31:07;;;;;;;;;42.60;36.20;;;;;7.14;65.06;97718.22;4995700;28;8846;-82
2023/12/22 10:33:37;;;;;;;;;42.75;37.50;;;;;7.36;65.33;97715.66;4985578;28;8855;-80
2023/12/22 10:36:09;;;;;;;;;51.25;43.25;;;;;7.61;65.49;97705.16;4981456;28;8840;-81
2023/12/22 10:38:38;;;;;;;;;50.50;41.25;;;;;7.15;62.11;97705.09;4995597;28;8865;-83
2023/12/22 10:41:08;;;;;;;;;49.75;38.75;;;;;7.52;63.50;97708.09;4988638;28;8873;-82
2023/12/22 10:43:39;;;;;;;;;52.75;45.00;;;;;7.69;63.47;97695.22;4989275;28;8892;-85
2023/12/22 10:46:11;;;;;;;;;43.33;37.67;;;;;7.86;63.15;97684.94;5002983;28;8868;-81
2023/12/22 10:48:41;;;;;;;;;43.50;39.25;;;;;7.91;62.27;97691.75;4956760;28;8889;-81
2023/12/22 10:51:11;;;;;;;;;52.25;40.50;;;;;7.71;60.19;97682.94;4944535;28;9033;-83
2023/12/22 10:53:43;;;;;;;;;45.80;40.20;;;;;7.53;62.87;97670.56;4948860;28;8851;-83
2023/12/22 10:56:12;;;;;;;;;50.50;41.00;;;;;7.78;62.61;97684.41;4951900;28;8879;-81
2023/12/22 10:58:45;;;;;;;;;48.75;42.00;;;;;7.42;60.97;97700.59;4914939;29;8851;-80
2023/12/22 11:01:17;;;;;;;;;43.00;38.00;;;;;7.58;63.57;97692.19;4930860;29;8890;-81
2023/12/22 11:03:48;;;;;;;;;45.00;39.25;;;;;7.48;62.59;97697.75;4914355;29;8866;-82
2023/12/22 11:06:18;;;;;;;;;46.75;39.50;;;;;7.57;63.01;97727.06;4941027;28;8852;-81
2023/12/22 11:08:52;;;;;;;;;39.50;35.75;;;;;7.73;61.54;97719.50;4934288;28;8859;-82
2023/12/22 11:11:29;;;;;;;;;45.50;37.50;;;;;7.78;60.98;97730.63;4952987;28;8880;-81
2023/12/22 11:13:58;;;;;;;;;50.50;40.00;;;;;7.55;60.37;97723.66;4963270;28;8867;-81
2023/12/22 11:16:30;;;;;;;;;50.00;39.25;;;;;7.08;61.24;97724.53;4951995;28;8958;-79
2023/12/22 11:19:00;;;;;;;;;44.00;37.80;;;;;6.76;62.74;97739.53;4950185;28;9026;-81
2023/12/22 11:21:32;;;;;;;;;40.60;35.80;;;;;6.78;62.79;97726.44;4950500;28;9642;-82
2023/12/22 11:24:02;;;;;;;;;39.00;37.50;;;;;6.94;62.90;97726.78;4938750;28;8874;-81
2023/12/22 11:26:33;;;;;;;;;42.00;37.40;;;;;6.69;61.53;97718.00;4983151;28;8871;-82
2023/12/22 11:29:05;;;;;;;;;40.00;36.40;;;;;6.78;62.20;97710.75;5025048;28;8885;-82
2023/12/22 11:31:38;;;;;;;;;38.00;35.60;;;;;6.67;62.82;97705.91;5011143;28;8892;-82
2023/12/22 11:34:09;;;;;;;;;44.00;37.00;;;;;6.71;62.69;97715.34;5012577;28;8858;-81
2023/12/22 11:36:46;;;;;;;;;36.20;33.80;;;;;7.05;62.27;97706.34;5037324;28;8854;-83
2023/12/22 11:39:16;;;;;;;;;37.00;35.20;;;;;7.13;62.57;97700.84;5039742;28;8884;-81
2023/12/22 11:41:47;;;;;;;;;36.60;34.60;;;;;7.15;60.69;97702.47;5031354;28;8892;-82
2023/12/22 11:44:17;;;;;;;;;38.40;35.40;;;;;7.41;62.47;97706.72;5008725;28;8988;-82
2023/12/22 11:46:48;;;;;;;;;40.40;35.20;;;;;7.32;60.97;97709.69;4992401;28;8852;-83